METAR Data

Data at: 1000 UTC 23 Jan 2019

METAR for:KEWR (Newark Intl, NJ, US)
Text:KEWR 230951Z 19009KT 10SM OVC150 M01/M09 A3042 RMK AO2 SLP300 T10111089
Temperature: -1.1°C ( 30°F)
Dewpoint: -8.9°C ( 16°F) [RH = 55%]
Pressure (altimeter):30.42 inches Hg (1030.2 mb) [Sea level pressure: 1030.0 mb]
Winds:from the S (190 degrees) at 10 MPH (9 knots; 4.6 m/s)
Visibility:10 or more sm (16+ km)
Ceiling:15000 feet AGL
Clouds: overcast cloud deck at 15000 feet AGL